createdAt,value
2023-04-11T00:02:14.114Z,2.33
2023-04-11T00:04:41.625Z,2.38
2023-04-11T00:07:09.230Z,2.97
2023-04-11T00:09:36.422Z,2.60
2023-04-11T00:12:04.637Z,3.30
2023-04-11T00:14:34.651Z,3.00
2023-04-11T00:17:01.913Z,2.85
2023-04-11T00:19:29.601Z,2.72
2023-04-11T00:22:00.536Z,2.75
2023-04-11T00:24:27.793Z,2.78
2023-04-11T00:26:55.081Z,3.03
2023-04-11T00:29:22.395Z,2.40
2023-04-11T00:31:49.817Z,2.47
2023-04-11T00:34:18.281Z,2.75
2023-04-11T00:36:46.934Z,3.10
2023-04-11T00:39:14.514Z,2.58
2023-04-11T00:41:41.727Z,2.40
2023-04-11T00:44:09.761Z,3.13
2023-04-11T00:46:37.452Z,3.08
2023-04-11T00:49:04.715Z,3.35
2023-04-11T00:51:32.020Z,3.55
2023-04-11T00:54:01.162Z,2.47
2023-04-11T00:58:56.587Z,3.00
2023-04-11T01:01:25.370Z,3.30
2023-04-11T01:03:53.707Z,2.45
2023-04-11T01:06:23.391Z,2.70
2023-04-11T01:08:50.674Z,2.95
2023-04-11T01:11:20.229Z,2.40
2023-04-11T01:13:48.380Z,2.53
2023-04-11T01:16:16.551Z,2.65
2023-04-11T01:18:43.739Z,2.75
2023-04-11T01:21:10.975Z,2.90
2023-04-11T01:23:38.816Z,2.30
2023-04-11T01:26:06.498Z,2.22
2023-04-11T01:28:33.911Z,2.63
2023-04-11T01:31:03.358Z,2.63
2023-04-11T01:33:30.814Z,1.80
2023-04-11T01:35:58.458Z,2.45
2023-04-11T01:38:25.748Z,2.33
2023-04-11T01:40:54.574Z,2.22
2023-04-11T01:43:21.789Z,2.53
2023-04-11T01:45:51.236Z,2.45
2023-04-11T01:48:20.217Z,2.15
2023-04-11T01:50:47.473Z,2.10
2023-04-11T01:53:14.750Z,2.67
2023-04-11T01:55:41.949Z,1.92
2023-04-11T01:58:09.200Z,2.72
2023-04-11T02:00:37.048Z,2.45
2023-04-11T02:03:05.227Z,2.53
2023-04-11T02:05:32.782Z,2.60
2023-04-11T02:08:00.041Z,2.33
2023-04-11T02:10:27.296Z,2.35
2023-04-11T02:12:54.590Z,2.65
2023-04-11T02:15:21.823Z,2.17
2023-04-11T02:17:49.460Z,2.95
2023-04-11T02:20:16.918Z,2.17
2023-04-11T02:22:44.097Z,2.67
2023-04-11T02:25:11.377Z,2.53
2023-04-11T02:27:38.630Z,2.13
2023-04-11T02:30:06.684Z,2.55
2023-04-11T02:32:35.371Z,2.13
2023-04-11T02:35:02.637Z,2.80
2023-04-11T02:37:29.968Z,2.22
2023-04-11T02:39:58.204Z,2.13
2023-04-11T02:42:25.574Z,1.75
2023-04-11T02:44:56.985Z,2.42
2023-04-11T02:47:27.826Z,2.15
2023-04-11T02:49:58.652Z,1.95
2023-04-11T02:52:33.468Z,2.80
2023-04-11T02:55:00.801Z,2.47
2023-04-11T02:57:28.016Z,2.40
2023-04-11T02:59:56.281Z,2.08
2023-04-11T03:02:30.083Z,1.48
2023-04-11T03:04:59.017Z,2.35
2023-04-11T03:07:27.113Z,2.03
2023-04-11T03:09:54.468Z,2.58
2023-04-11T03:12:21.742Z,2.60
2023-04-11T03:14:55.481Z,2.58
2023-04-11T03:17:22.742Z,1.98
2023-04-11T03:19:50.422Z,2.22
2023-04-11T03:22:17.657Z,2.63
2023-04-11T03:24:44.909Z,2.08
2023-04-11T03:27:12.218Z,1.55
2023-04-11T03:29:42.402Z,2.45
2023-04-11T03:32:16.676Z,2.03
2023-04-11T03:34:43.975Z,2.42
2023-04-11T03:37:16.595Z,1.80
2023-04-11T03:39:43.926Z,1.98
2023-04-11T03:42:12.595Z,2.90
2023-04-11T03:44:40.383Z,2.15
2023-04-11T03:47:07.771Z,2.22
2023-04-11T03:49:40.762Z,2.17
2023-04-11T03:52:09.871Z,2.50
2023-04-11T03:54:38.164Z,2.42
2023-04-11T03:57:09.110Z,2.20
2023-04-11T03:59:36.334Z,2.33
2023-04-11T04:02:08.077Z,2.45
2023-04-11T04:04:40.385Z,2.40
2023-04-11T04:07:27.550Z,3.00
2023-04-11T04:10:01.953Z,2.67
2023-04-11T04:12:29.867Z,2.13
2023-04-11T04:15:08.731Z,2.03
2023-04-11T04:17:36.374Z,2.13
2023-04-11T04:20:11.029Z,1.95
2023-04-11T04:22:39.536Z,1.98
2023-04-11T04:25:09.008Z,1.80
2023-04-11T04:27:36.240Z,1.95
2023-04-11T04:30:06.761Z,2.28
2023-04-11T04:32:58.866Z,2.10
2023-04-11T04:35:26.914Z,1.88
2023-04-11T04:37:54.505Z,2.03
2023-04-11T04:40:41.734Z,1.75
2023-04-11T04:43:18.021Z,1.90
2023-04-11T04:45:53.895Z,1.77
2023-04-11T04:48:25.750Z,1.60
2023-04-11T04:50:53.359Z,1.45
2023-04-11T04:53:21.144Z,1.42
2023-04-11T04:55:53.987Z,1.10
2023-04-11T04:58:21.567Z,1.38
2023-04-11T05:00:51.308Z,1.05
2023-04-11T05:03:22.897Z,1.40
2023-04-11T05:05:51.772Z,1.38
2023-04-11T05:08:20.979Z,1.35
2023-04-11T05:10:48.585Z,1.08
2023-04-11T05:13:16.566Z,1.23
2023-04-11T05:15:48.804Z,0.90
2023-04-11T05:18:16.351Z,1.13
2023-04-11T05:20:44.025Z,0.93
2023-04-11T05:23:16.141Z,1.05
2023-04-11T05:25:44.568Z,1.08
2023-04-11T05:28:13.992Z,0.90
2023-04-11T05:30:42.387Z,1.00
2023-04-11T05:33:12.857Z,0.98
2023-04-11T05:35:42.008Z,1.10
2023-04-11T05:38:09.845Z,1.20
2023-04-11T05:40:37.355Z,0.85
2023-04-11T05:43:05.379Z,1.33
2023-04-11T05:45:32.956Z,0.60
2023-04-11T05:48:00.274Z,0.70
2023-04-11T05:50:27.537Z,0.50
2023-04-11T05:52:54.746Z,0.32
2023-04-11T05:55:22.200Z,0.45
2023-04-11T05:57:49.461Z,0.50
2023-04-11T06:00:17.296Z,0.30
2023-04-11T06:02:44.848Z,0.40
2023-04-11T06:05:12.550Z,0.47
2023-04-11T06:07:39.860Z,0.40
2023-04-11T06:10:08.562Z,0.52
2023-04-11T06:12:36.239Z,0.65
2023-04-11T06:15:03.953Z,0.35
2023-04-11T06:17:31.223Z,0.50
2023-04-11T06:19:58.625Z,0.50
2023-04-11T06:22:25.836Z,0.40
2023-04-11T06:24:53.060Z,0.43
2023-04-11T06:27:20.225Z,0.30
2023-04-11T06:29:47.428Z,0.88
2023-04-11T06:32:14.705Z,0.45
2023-04-11T06:34:42.108Z,0.77
2023-04-11T06:37:09.565Z,0.50
2023-04-11T06:39:37.804Z,0.57
2023-04-11T06:42:04.986Z,0.43
2023-04-11T06:44:33.743Z,0.30
2023-04-11T06:47:01.110Z,0.55
2023-04-11T06:49:28.508Z,0.38
2023-04-11T06:51:56.048Z,0.50
2023-04-11T06:54:23.782Z,0.45
2023-04-11T06:56:51.374Z,0.55
2023-04-11T06:59:20.266Z,0.40
2023-04-11T07:01:49.512Z,0.70
2023-04-11T07:04:17.404Z,0.63
2023-04-11T07:06:44.712Z,0.65
2023-04-11T07:09:14.932Z,0.77
2023-04-11T07:11:42.226Z,0.20
2023-04-11T07:14:09.471Z,0.30
2023-04-11T07:16:36.837Z,0.75
2023-04-11T07:19:04.186Z,0.30
2023-04-11T07:21:32.279Z,0.63
2023-04-11T07:24:00.658Z,0.50
2023-04-11T07:26:32.219Z,0.30
2023-04-11T07:28:59.811Z,0.55
2023-04-11T07:31:27.467Z,0.57
2023-04-11T07:33:55.310Z,0.57
2023-04-11T07:36:22.885Z,0.60
2023-04-11T07:38:50.397Z,0.65
2023-04-11T07:41:24.126Z,0.60
2023-04-11T07:43:51.582Z,0.55
2023-04-11T07:46:18.921Z,0.60
2023-04-11T07:48:46.588Z,0.47
2023-04-11T07:51:13.821Z,0.80
2023-04-11T07:53:41.017Z,0.55
2023-04-11T07:56:08.650Z,1.10
2023-04-11T07:58:35.981Z,0.73
2023-04-11T08:01:03.743Z,0.63
2023-04-11T08:03:31.725Z,1.00
2023-04-11T08:05:59.125Z,0.90
2023-04-11T08:08:26.421Z,0.88
2023-04-11T08:10:53.669Z,1.23
2023-04-11T08:13:21.197Z,1.08
2023-04-11T08:15:48.386Z,0.52
2023-04-11T08:18:16.489Z,0.75
2023-04-11T08:20:43.810Z,0.52
2023-04-11T08:23:11.276Z,0.45
2023-04-11T08:25:39.118Z,0.60
2023-04-11T08:28:06.543Z,0.40
2023-04-11T08:30:33.842Z,0.63
2023-04-11T08:33:01.655Z,0.70
2023-04-11T08:35:29.062Z,0.50
2023-04-11T08:37:56.290Z,0.38
2023-04-11T08:40:24.597Z,0.20
2023-04-11T08:43:01.502Z,0.10
2023-04-11T08:45:29.465Z,0.03
2023-04-11T08:47:56.703Z,0.35
2023-04-11T08:50:24.206Z,0.28
2023-04-11T08:52:53.573Z,0.10
2023-04-11T08:55:20.958Z,0.20
2023-04-11T08:57:48.248Z,0.30
2023-04-11T09:00:18.805Z,0.20
2023-04-11T09:03:01.389Z,0.10
2023-04-11T09:05:31.318Z,0.00
2023-04-11T09:08:00.889Z,0.28
2023-04-11T09:10:28.565Z,0.17
2023-04-11T09:12:56.755Z,0.10
2023-04-11T09:15:26.368Z,0.20
2023-04-11T09:17:54.558Z,0.25
2023-04-11T09:20:26.189Z,0.32
2023-04-11T09:22:54.478Z,0.20
2023-04-11T09:25:23.214Z,0.30
2023-04-11T09:28:06.726Z,0.30
2023-04-11T09:30:35.283Z,0.35
2023-04-11T09:33:22.594Z,0.20
2023-04-11T09:35:52.177Z,0.30
2023-04-11T09:38:36.034Z,0.20
2023-04-11T09:41:04.614Z,0.35
2023-04-11T09:43:51.625Z,0.08
2023-04-11T09:48:50.154Z,0.45
2023-04-11T09:51:34.434Z,0.30
2023-04-11T09:54:04.129Z,0.20
2023-04-11T09:59:02.292Z,0.30
2023-04-11T10:01:29.559Z,0.88
2023-04-11T10:03:57.625Z,0.50
2023-04-11T10:06:34.040Z,0.40
2023-04-11T10:09:08.347Z,0.57
2023-04-11T10:11:36.587Z,0.38
2023-04-11T10:14:03.995Z,0.43
2023-04-11T10:16:34.034Z,0.40
2023-04-11T10:19:01.917Z,0.40
2023-04-11T10:21:29.162Z,0.38
2023-04-11T10:24:17.521Z,0.25
2023-04-11T10:26:59.788Z,0.60
2023-04-11T10:29:30.301Z,0.35
2023-04-11T10:32:16.721Z,0.20
2023-04-11T10:34:50.341Z,0.55
2023-04-11T10:37:19.318Z,0.65
2023-04-11T10:40:00.488Z,0.47
2023-04-11T10:42:34.776Z,0.35
2023-04-11T10:45:24.534Z,0.30
2023-04-11T10:47:52.008Z,0.20
2023-04-11T10:50:34.305Z,0.50
2023-04-11T10:53:04.676Z,0.50
2023-04-11T10:55:46.516Z,0.40
2023-04-11T10:58:22.152Z,0.35
2023-04-11T11:00:49.947Z,0.20
2023-04-11T11:03:25.562Z,0.68
2023-04-11T11:06:04.524Z,0.40
2023-04-11T11:08:34.243Z,0.40
2023-04-11T11:11:02.232Z,0.70
2023-04-11T11:13:40.353Z,0.45
2023-04-11T11:16:09.322Z,0.40
2023-04-11T11:18:37.385Z,0.50
2023-04-11T11:21:07.308Z,0.50
2023-04-11T11:23:36.109Z,0.32
2023-04-11T11:26:03.894Z,1.17
2023-04-11T11:28:31.309Z,0.70
2023-04-11T11:30:58.671Z,0.30
2023-04-11T11:33:26.871Z,0.50
2023-04-11T11:35:56.642Z,0.50
2023-04-11T11:38:27.657Z,0.50
2023-04-11T11:40:56.190Z,0.50
2023-04-11T11:43:25.363Z,0.85
2023-04-11T11:46:16.511Z,0.60
2023-04-11T11:48:58.878Z,0.60
2023-04-11T11:51:26.650Z,0.40
2023-04-11T11:54:08.709Z,0.77
2023-04-11T11:56:37.220Z,0.40
2023-04-11T11:59:05.140Z,0.88
2023-04-11T12:01:39.154Z,0.52
2023-04-11T12:04:07.853Z,0.70
2023-04-11T12:06:35.453Z,0.43
2023-04-11T12:09:10.300Z,0.50
2023-04-11T12:11:41.933Z,0.30
2023-04-11T12:14:09.584Z,0.60
2023-04-11T12:16:39.688Z,0.60
2023-04-11T12:19:08.610Z,0.50
2023-04-11T12:24:03.559Z,0.60
2023-04-11T12:26:30.903Z,0.52
2023-04-11T12:28:58.746Z,0.25
2023-04-11T12:31:27.220Z,0.55
2023-04-11T12:33:54.899Z,0.57
2023-04-11T12:36:22.402Z,0.63
2023-04-11T12:38:49.629Z,0.73
2023-04-11T12:41:31.797Z,0.30
2023-04-11T12:44:02.141Z,0.98
2023-04-11T12:46:29.843Z,0.80
2023-04-11T12:48:57.336Z,0.68
2023-04-11T12:51:24.919Z,0.80
2023-04-11T12:53:52.846Z,0.85
2023-04-11T12:56:20.659Z,0.38
2023-04-11T12:58:47.945Z,0.50
2023-04-11T13:01:16.418Z,0.32
2023-04-11T13:03:43.749Z,0.80
2023-04-11T13:06:11.383Z,0.50
2023-04-11T13:08:38.832Z,0.77
2023-04-11T13:11:06.856Z,0.70
2023-04-11T13:13:34.163Z,0.30
2023-04-11T13:16:01.612Z,0.30
2023-04-11T13:18:29.075Z,0.28
2023-04-11T13:20:56.515Z,0.32
2023-04-11T13:23:23.747Z,0.10
2023-04-11T13:25:51.167Z,0.50
2023-04-11T13:28:18.426Z,0.40
2023-04-11T13:30:46.375Z,0.60
2023-04-11T13:33:13.734Z,0.65
2023-04-11T13:35:41.036Z,0.38
2023-04-11T13:38:10.681Z,0.35
2023-04-11T13:40:42.648Z,0.35
2023-04-11T13:43:10.698Z,0.20
2023-04-11T13:45:38.050Z,0.57
2023-04-11T13:48:05.658Z,0.30
2023-04-11T13:50:34.296Z,0.50
2023-04-11T13:53:01.692Z,0.50
2023-04-11T13:55:29.061Z,0.30
2023-04-11T13:57:56.359Z,0.43
2023-04-11T14:00:23.645Z,0.50
2023-04-11T14:02:52.653Z,0.50
2023-04-11T14:05:20.327Z,0.68
2023-04-11T14:07:47.596Z,0.30
2023-04-11T14:10:16.912Z,0.55
2023-04-11T14:12:45.275Z,0.30
2023-04-11T14:15:12.520Z,0.30
2023-04-11T14:17:41.186Z,0.17
2023-04-11T14:20:11.338Z,0.60
2023-04-11T14:22:38.792Z,0.35
2023-04-11T14:25:09.744Z,0.50
2023-04-11T14:27:41.355Z,0.25
2023-04-11T14:30:10.484Z,0.25
2023-04-11T14:32:40.013Z,0.40
2023-04-11T14:35:09.360Z,0.38
2023-04-11T14:37:36.827Z,0.30
2023-04-11T14:40:10.064Z,0.40
2023-04-11T14:42:38.066Z,0.60
2023-04-11T14:45:06.456Z,0.60
2023-04-11T14:47:33.783Z,0.55
2023-04-11T14:50:01.486Z,0.35
2023-04-11T14:52:28.815Z,0.73
2023-04-11T14:54:56.458Z,0.25
2023-04-11T14:57:23.902Z,0.63
2023-04-11T14:59:51.134Z,0.40
2023-04-11T15:02:18.942Z,0.50
2023-04-11T15:04:46.609Z,0.10
2023-04-11T15:07:14.407Z,0.15
2023-04-11T15:09:42.400Z,0.25
2023-04-11T15:12:09.638Z,0.20
2023-04-11T15:14:36.889Z,0.32
2023-04-11T15:17:04.155Z,0.13
2023-04-11T15:19:31.552Z,0.15
2023-04-11T15:21:58.963Z,0.28
2023-04-11T15:24:26.171Z,0.00
2023-04-11T15:26:53.487Z,0.52
2023-04-11T15:29:20.826Z,0.10
2023-04-11T15:31:48.311Z,0.10
2023-04-11T15:34:16.755Z,0.17
2023-04-11T15:36:45.156Z,0.20
2023-04-11T15:39:12.381Z,0.13
2023-04-11T15:41:39.602Z,0.10
2023-04-11T15:44:06.943Z,0.25
2023-04-11T15:46:34.290Z,0.03
2023-04-11T15:49:02.406Z,0.20
2023-04-11T15:51:30.426Z,0.20
2023-04-11T15:53:58.578Z,0.10
2023-04-11T15:56:29.594Z,0.20
2023-04-11T15:58:57.824Z,0.40
2023-04-11T16:01:26.374Z,0.20
2023-04-11T16:03:55.344Z,0.82
2023-04-11T16:06:22.812Z,0.38
2023-04-11T16:08:52.648Z,0.20
2023-04-11T16:11:22.189Z,0.30
2023-04-11T16:13:50.701Z,0.15
2023-04-11T16:16:17.997Z,0.22
2023-04-11T16:18:45.297Z,0.43
2023-04-11T16:21:15.626Z,0.10
2023-04-11T16:23:43.155Z,0.30
2023-04-11T16:26:10.925Z,0.30
2023-04-11T16:28:38.252Z,0.50
2023-04-11T16:31:05.787Z,0.20
2023-04-11T16:33:33.118Z,0.22
2023-04-11T16:36:00.576Z,0.30
2023-04-11T16:38:27.829Z,0.30
2023-04-11T16:40:55.338Z,0.13
2023-04-11T16:43:22.596Z,0.10
2023-04-11T16:45:49.863Z,0.28
2023-04-11T16:48:17.119Z,0.30
2023-04-11T16:50:44.404Z,0.70
2023-04-11T16:53:11.612Z,0.40
2023-04-11T16:55:38.811Z,0.30
2023-04-11T16:58:06.228Z,0.30
2023-04-11T17:00:33.479Z,0.25
2023-04-11T17:03:00.853Z,0.20
2023-04-11T17:05:28.275Z,0.30
2023-04-11T17:07:55.924Z,0.40
2023-04-11T17:10:23.163Z,0.68
2023-04-11T17:12:50.451Z,0.38
2023-04-11T17:15:17.721Z,0.40
2023-04-11T17:17:45.014Z,0.88
2023-04-11T17:20:12.506Z,1.73
2023-04-11T17:22:43.060Z,1.90
2023-04-11T17:25:10.716Z,3.17
2023-04-11T17:27:37.967Z,1.73
2023-04-11T17:30:05.892Z,0.95
2023-04-11T17:32:34.718Z,2.10
2023-04-11T17:35:04.721Z,0.70
2023-04-11T17:37:32.439Z,0.70
2023-04-11T17:39:59.914Z,0.80
2023-04-11T17:42:27.143Z,0.68
2023-04-11T17:44:55.757Z,0.52
2023-04-11T17:47:26.709Z,0.32
2023-04-11T17:49:54.880Z,0.35
2023-04-11T17:52:22.419Z,0.65
2023-04-11T17:54:50.339Z,0.30
2023-04-11T17:57:18.402Z,0.35
2023-04-11T17:59:47.126Z,0.38
2023-04-11T18:02:14.763Z,0.40
2023-04-11T18:04:42.515Z,0.47
2023-04-11T18:07:09.744Z,0.60
2023-04-11T18:09:37.825Z,0.40
2023-04-11T18:12:05.176Z,0.40
2023-04-11T18:14:34.072Z,0.40
2023-04-11T18:17:01.605Z,0.52
2023-04-11T18:19:29.422Z,0.80
2023-04-11T18:21:56.692Z,0.50
2023-04-11T18:24:23.934Z,1.40
2023-04-11T18:26:51.473Z,0.50
2023-04-11T18:29:18.727Z,0.93
2023-04-11T18:31:46.074Z,1.83
2023-04-11T18:34:13.797Z,1.60
2023-04-11T18:36:41.365Z,0.70
2023-04-11T18:39:09.019Z,0.68
2023-04-11T18:41:36.241Z,0.38
2023-04-11T18:44:05.591Z,0.65
2023-04-11T18:46:34.336Z,0.40
2023-04-11T18:49:04.790Z,0.55
2023-04-11T18:51:35.438Z,0.50
2023-04-11T18:54:02.690Z,0.40
2023-04-11T18:56:29.918Z,0.40
2023-04-11T18:59:04.514Z,0.32
2023-04-11T19:01:35.155Z,0.35
2023-04-11T19:04:03.720Z,0.50
2023-04-11T19:06:31.183Z,0.30
2023-04-11T19:08:58.400Z,0.80
2023-04-11T19:11:25.852Z,0.43
2023-04-11T19:13:54.696Z,0.57
2023-04-11T19:16:22.174Z,0.75
2023-04-11T19:18:49.404Z,0.50
2023-04-11T19:21:17.297Z,0.40
2023-04-11T19:23:44.664Z,0.50
2023-04-11T19:26:12.041Z,0.88
2023-04-11T19:28:39.480Z,0.82
2023-04-11T19:31:06.680Z,0.82
2023-04-11T19:33:36.034Z,1.00
2023-04-11T19:38:31.929Z,0.77
2023-04-11T19:41:10.707Z,0.93
2023-04-11T19:43:38.055Z,0.80
2023-04-11T19:46:06.215Z,0.63
2023-04-11T19:48:33.499Z,0.80
2023-04-11T19:51:01.810Z,0.63
2023-04-11T19:55:59.630Z,0.80
2023-04-11T19:58:26.903Z,1.13
2023-04-11T20:00:54.169Z,1.27
2023-04-11T20:03:21.920Z,0.45
2023-04-11T20:05:49.696Z,1.10
2023-04-11T20:08:17.753Z,0.60
2023-04-11T20:10:44.963Z,0.80
2023-04-11T20:13:12.321Z,0.38
2023-04-11T20:15:39.580Z,0.32
2023-04-11T20:18:06.982Z,0.40
2023-04-11T20:20:36.822Z,0.82
2023-04-11T20:23:07.334Z,0.38
2023-04-11T20:25:34.915Z,1.23
2023-04-11T20:28:02.596Z,0.93
2023-04-11T20:33:26.659Z,0.60
2023-04-11T20:35:56.001Z,0.35
2023-04-11T20:38:26.318Z,0.70
2023-04-11T20:40:53.641Z,0.50
2023-04-11T20:43:21.374Z,0.45
2023-04-11T20:45:48.681Z,0.75
2023-04-11T20:48:16.229Z,0.63
2023-04-11T20:50:47.103Z,0.77
2023-04-11T20:53:14.565Z,0.50
2023-04-11T20:55:41.842Z,0.40
2023-04-11T20:58:11.185Z,0.60
2023-04-11T21:00:39.863Z,0.30
2023-04-11T21:03:09.045Z,0.75
2023-04-11T21:05:37.876Z,0.17
2023-04-11T21:08:06.502Z,0.30
2023-04-11T21:10:33.822Z,0.47
2023-04-11T21:13:01.119Z,0.40
2023-04-11T21:15:28.413Z,0.40
2023-04-11T21:17:56.849Z,0.50
2023-04-11T21:20:24.329Z,0.60
2023-04-11T21:22:53.101Z,0.30
2023-04-11T21:25:20.676Z,0.40
2023-04-11T21:27:48.164Z,0.22
2023-04-11T21:30:16.015Z,0.40
2023-04-11T21:32:43.415Z,0.47
2023-04-11T21:35:11.729Z,0.20
2023-04-11T21:37:39.064Z,0.40
2023-04-11T21:40:06.921Z,0.30
2023-04-11T21:42:34.147Z,0.93
2023-04-11T21:45:01.444Z,0.40
2023-04-11T21:47:28.767Z,0.40
2023-04-11T21:49:56.023Z,1.23
2023-04-11T21:52:23.261Z,0.38
2023-04-11T21:54:50.477Z,0.30
2023-04-11T21:57:18.748Z,0.40
2023-04-11T21:59:46.709Z,0.28
2023-04-11T22:02:14.407Z,0.50
2023-04-11T22:04:55.803Z,0.35
2023-04-11T22:07:33.062Z,0.60
2023-04-11T22:10:09.142Z,0.52
2023-04-11T22:12:36.992Z,0.50
2023-04-11T22:15:05.240Z,0.68
2023-04-11T22:17:33.863Z,0.32
2023-04-11T22:20:01.057Z,0.65
2023-04-11T22:22:28.714Z,0.70
2023-04-11T22:24:57.874Z,0.52
2023-04-11T22:27:26.453Z,0.40
2023-04-11T22:29:56.102Z,0.73
2023-04-11T22:32:24.071Z,0.30
2023-04-11T22:34:51.784Z,0.73
2023-04-11T22:37:19.125Z,0.57
2023-04-11T22:39:46.518Z,0.50
2023-04-11T22:42:13.721Z,0.80
2023-04-11T22:44:42.084Z,0.80
2023-04-11T22:47:13.321Z,0.10
2023-04-11T22:49:40.933Z,0.38
2023-04-11T22:52:10.537Z,0.47
2023-04-11T22:54:39.104Z,0.52
2023-04-11T22:57:06.351Z,0.30
2023-04-11T22:59:33.569Z,0.68
2023-04-11T23:02:01.049Z,0.47
2023-04-11T23:04:28.322Z,0.80
2023-04-11T23:06:55.592Z,0.30
2023-04-11T23:09:23.342Z,0.30
2023-04-11T23:11:52.206Z,0.32
2023-04-11T23:14:21.105Z,0.75
2023-04-11T23:16:48.824Z,0.50
2023-04-11T23:19:17.120Z,0.15
2023-04-11T23:21:44.851Z,0.77
2023-04-11T23:24:12.034Z,0.70
2023-04-11T23:26:39.228Z,0.88
2023-04-11T23:29:07.257Z,0.32
2023-04-11T23:31:34.509Z,0.65
2023-04-11T23:34:02.053Z,0.20
2023-04-11T23:36:29.465Z,1.08
2023-04-11T23:38:56.689Z,0.60
2023-04-11T23:41:23.984Z,0.57
2023-04-11T23:43:52.229Z,0.40
2023-04-11T23:46:20.307Z,0.90
2023-04-11T23:48:47.574Z,0.47
2023-04-11T23:51:15.929Z,1.38
2023-04-11T23:53:43.708Z,0.93
2023-04-11T23:56:11.045Z,0.70
2023-04-11T23:58:38.438Z,0.60
